createdAt,value
2022-10-04T00:00:45.692Z,480.00
2022-10-04T00:01:45.548Z,481.00
2022-10-04T00:02:45.759Z,484.00
2022-10-04T00:03:45.499Z,485.00
2022-10-04T00:04:45.531Z,483.00
2022-10-04T00:05:45.493Z,482.00
2022-10-04T00:06:45.550Z,486.00
2022-10-04T00:07:45.449Z,492.00
2022-10-04T00:08:45.519Z,486.00
2022-10-04T00:09:45.419Z,486.00
2022-10-04T00:11:11.796Z,487.00
2022-10-04T00:11:45.398Z,483.00
2022-10-04T00:12:45.382Z,476.00
2022-10-04T00:13:46.480Z,482.00
2022-10-04T00:14:45.362Z,479.00
2022-10-04T00:15:45.536Z,484.00
2022-10-04T00:16:45.350Z,483.00
2022-10-04T00:17:45.539Z,484.00
2022-10-04T00:18:45.309Z,486.00
2022-10-04T00:19:45.362Z,485.00
2022-10-04T00:20:45.273Z,484.00
2022-10-04T00:21:45.402Z,488.00
2022-10-04T00:22:45.268Z,474.00
2022-10-04T00:23:45.261Z,485.00
2022-10-04T00:24:45.230Z,484.00
2022-10-04T00:25:45.273Z,487.00
2022-10-04T00:26:45.196Z,481.00
2022-10-04T00:27:45.302Z,481.00
2022-10-04T00:28:45.191Z,484.00
2022-10-04T00:29:45.210Z,482.00
2022-10-04T00:30:45.139Z,478.00
2022-10-04T00:31:45.439Z,481.00
2022-10-04T00:32:45.111Z,482.00
2022-10-04T00:33:45.129Z,479.00
2022-10-04T00:34:45.111Z,480.00
2022-10-04T00:35:47.343Z,486.00
2022-10-04T00:36:45.066Z,487.00
2022-10-04T00:37:46.101Z,490.00
2022-10-04T00:38:45.042Z,486.00
2022-10-04T00:39:45.113Z,483.00
2022-10-04T00:40:45.041Z,487.00
2022-10-04T00:41:45.150Z,485.00
2022-10-04T00:42:44.982Z,486.00
2022-10-04T00:44:06.060Z,486.00
2022-10-04T00:44:44.959Z,481.00
2022-10-04T00:45:45.040Z,483.00
2022-10-04T00:46:44.951Z,480.00
2022-10-04T00:47:45.059Z,482.00
2022-10-04T00:48:44.901Z,485.00
2022-10-04T00:50:05.973Z,485.00
2022-10-04T00:50:44.879Z,485.00
2022-10-04T00:51:45.030Z,482.00
2022-10-04T00:52:44.910Z,481.00
2022-10-04T00:53:44.960Z,478.00
2022-10-04T00:54:44.820Z,473.00
2022-10-04T00:55:44.891Z,478.00
2022-10-04T00:56:44.800Z,480.00
2022-10-04T00:57:44.930Z,483.00
2022-10-04T00:58:44.810Z,484.00
2022-10-04T00:59:44.810Z,476.00
2022-10-04T01:00:44.789Z,479.00
2022-10-04T01:01:45.232Z,482.00
2022-10-04T01:02:44.720Z,479.00
2022-10-04T01:03:45.863Z,479.00
2022-10-04T01:04:44.710Z,482.00
2022-10-04T01:05:44.771Z,489.00
2022-10-04T01:06:44.723Z,485.00
2022-10-04T01:07:45.730Z,487.00
2022-10-04T01:08:44.647Z,493.00
2022-10-04T01:09:44.678Z,487.00
2022-10-04T01:10:44.650Z,486.00
2022-10-04T01:11:44.818Z,483.00
2022-10-04T01:12:44.583Z,484.00
2022-10-04T01:13:44.713Z,480.00
2022-10-04T01:14:44.561Z,474.00
2022-10-04T01:15:44.694Z,479.00
2022-10-04T01:16:44.551Z,481.00
2022-10-04T01:17:44.692Z,484.00
2022-10-04T01:18:44.511Z,481.00
2022-10-04T01:19:44.542Z,484.00
2022-10-04T01:20:44.476Z,476.00
2022-10-04T01:21:44.559Z,480.00
2022-10-04T01:22:44.472Z,478.00
2022-10-04T01:23:44.481Z,479.00
2022-10-04T01:24:44.420Z,476.00
2022-10-04T01:25:44.524Z,482.00
2022-10-04T01:26:44.384Z,485.00
2022-10-04T01:27:44.558Z,483.00
2022-10-04T01:28:44.412Z,483.00
2022-10-04T01:29:46.591Z,482.00
2022-10-04T01:30:44.381Z,485.00
2022-10-04T01:31:45.984Z,483.00
2022-10-04T01:32:45.384Z,485.00
2022-10-04T01:33:44.361Z,485.00
2022-10-04T01:34:44.321Z,480.00
2022-10-04T01:35:45.422Z,480.00
2022-10-04T01:36:44.261Z,483.00
2022-10-04T01:37:44.336Z,484.00
2022-10-04T01:38:44.271Z,484.00
2022-10-04T01:39:44.372Z,485.00
2022-10-04T01:40:44.246Z,487.00
2022-10-04T01:41:45.222Z,471.00
2022-10-04T01:42:44.182Z,481.00
2022-10-04T01:43:44.243Z,483.00
2022-10-04T01:44:44.153Z,482.00
2022-10-04T01:45:44.279Z,482.00
2022-10-04T01:46:44.237Z,485.00
2022-10-04T01:47:44.213Z,485.00
2022-10-04T01:48:44.094Z,480.00
2022-10-04T01:49:44.246Z,483.00
2022-10-04T01:50:44.072Z,480.00
2022-10-04T01:51:44.232Z,480.00
2022-10-04T01:52:44.074Z,482.00
2022-10-04T01:53:44.118Z,485.00
2022-10-04T01:54:44.021Z,484.00
2022-10-04T01:55:44.152Z,483.00
2022-10-04T01:56:44.004Z,481.00
2022-10-04T01:57:44.092Z,481.00
2022-10-04T01:58:44.004Z,487.00
2022-10-04T02:00:53.543Z,526.00
2022-10-04T02:01:53.292Z,488.00
2022-10-04T02:02:53.440Z,486.00
2022-10-04T02:03:53.302Z,483.00
2022-10-04T02:04:53.522Z,453.00
2022-10-04T02:05:53.248Z,489.00
2022-10-04T02:06:53.301Z,485.00
2022-10-04T02:07:53.212Z,485.00
2022-10-04T02:08:53.341Z,484.00
2022-10-04T02:09:53.211Z,486.00
2022-10-04T02:10:53.282Z,487.00
2022-10-04T02:11:53.180Z,490.00
2022-10-04T02:12:53.311Z,488.00
2022-10-04T02:13:53.131Z,487.00
2022-10-04T02:14:53.343Z,490.00
2022-10-04T02:15:53.205Z,489.00
2022-10-04T02:16:53.181Z,489.00
2022-10-04T02:17:53.080Z,494.00
2022-10-04T02:18:53.221Z,490.00
2022-10-04T02:19:53.052Z,486.00
2022-10-04T02:20:53.151Z,488.00
2022-10-04T02:21:53.042Z,485.00
2022-10-04T02:22:54.221Z,483.00
2022-10-04T02:23:53.002Z,485.00
2022-10-04T02:24:53.021Z,485.00
2022-10-04T02:25:52.974Z,487.00
2022-10-04T02:26:53.063Z,486.00
2022-10-04T02:27:53.032Z,486.00
2022-10-04T02:28:54.012Z,485.00
2022-10-04T02:29:52.922Z,484.00
2022-10-04T02:30:55.172Z,484.00
2022-10-04T02:31:52.910Z,485.00
2022-10-04T02:32:53.062Z,487.00
2022-10-04T02:33:52.901Z,482.00
2022-10-04T02:34:52.902Z,488.00
2022-10-04T02:35:52.845Z,488.00
2022-10-04T02:36:52.932Z,488.00
2022-10-04T02:37:52.813Z,487.00
2022-10-04T02:38:52.975Z,487.00
2022-10-04T02:39:52.813Z,483.00
2022-10-04T02:40:52.903Z,480.00
2022-10-04T02:41:52.764Z,482.00
2022-10-04T02:42:53.864Z,484.00
2022-10-04T02:43:52.731Z,482.00
2022-10-04T02:44:54.883Z,485.00
2022-10-04T02:45:52.730Z,486.00
2022-10-04T02:46:52.900Z,488.00
2022-10-04T02:47:52.682Z,487.00
2022-10-04T02:48:52.851Z,483.00
2022-10-04T02:49:52.654Z,483.00
2022-10-04T02:50:52.790Z,482.00
2022-10-04T02:51:52.662Z,484.00
2022-10-04T02:52:52.713Z,482.00
2022-10-04T02:53:52.603Z,485.00
2022-10-04T02:54:52.756Z,481.00
2022-10-04T02:55:52.581Z,483.00
2022-10-04T02:56:52.690Z,482.00
2022-10-04T02:57:52.611Z,487.00
2022-10-04T02:58:53.651Z,486.00
2022-10-04T02:59:52.523Z,489.00
2022-10-04T03:00:52.651Z,482.00
2022-10-04T03:01:52.557Z,486.00
2022-10-04T03:02:52.592Z,490.00
2022-10-04T03:03:52.503Z,487.00
2022-10-04T03:04:52.531Z,489.00
2022-10-04T03:05:52.451Z,488.00
2022-10-04T03:06:52.572Z,485.00
2022-10-04T03:07:52.413Z,482.00
2022-10-04T03:08:52.602Z,488.00
2022-10-04T03:09:52.413Z,491.00
2022-10-04T03:10:52.433Z,484.00
2022-10-04T03:11:52.371Z,488.00
2022-10-04T03:12:52.464Z,486.00
2022-10-04T03:13:52.334Z,488.00
2022-10-04T03:14:53.432Z,486.00
2022-10-04T03:15:52.363Z,486.00
2022-10-04T03:16:52.501Z,483.00
2022-10-04T03:17:52.292Z,478.00
2022-10-04T03:18:52.480Z,479.00
2022-10-04T03:19:52.254Z,480.00
2022-10-04T03:20:52.314Z,483.00
2022-10-04T03:21:52.252Z,476.00
2022-10-04T03:22:52.353Z,478.00
2022-10-04T03:23:52.211Z,482.00
2022-10-04T03:24:52.383Z,483.00
2022-10-04T03:25:52.181Z,483.00
2022-10-04T03:26:52.325Z,485.00
2022-10-04T03:27:52.225Z,483.00
2022-10-04T03:28:52.284Z,484.00
2022-10-04T03:29:56.854Z,487.00
2022-10-04T03:30:53.114Z,482.00
2022-10-04T03:31:52.334Z,491.00
2022-10-04T03:32:52.091Z,490.00
2022-10-04T03:33:52.143Z,491.00
2022-10-04T03:34:52.064Z,489.00
2022-10-04T03:35:52.124Z,490.00
2022-10-04T03:36:52.042Z,486.00
2022-10-04T03:37:52.163Z,483.00
2022-10-04T03:38:52.003Z,491.00
2022-10-04T03:39:52.152Z,489.00
2022-10-04T03:40:51.983Z,487.00
2022-10-04T03:41:52.134Z,486.00
2022-10-04T03:42:51.956Z,487.00
2022-10-04T03:43:52.065Z,488.00
2022-10-04T03:44:51.927Z,484.00
2022-10-04T03:45:52.124Z,485.00
2022-10-04T03:46:51.903Z,487.00
2022-10-04T03:47:52.034Z,489.00
2022-10-04T03:48:51.875Z,483.00
2022-10-04T03:49:51.982Z,491.00
2022-10-04T03:50:51.878Z,486.00
2022-10-04T03:51:51.964Z,484.00
2022-10-04T03:52:51.823Z,483.00
2022-10-04T03:53:51.943Z,482.00
2022-10-04T03:54:51.794Z,480.00
2022-10-04T03:55:51.884Z,480.00
2022-10-04T03:56:51.766Z,483.00
2022-10-04T03:57:52.893Z,481.00
2022-10-04T03:58:51.745Z,481.00
2022-10-04T03:59:51.851Z,478.00
2022-10-04T04:00:51.749Z,480.00
2022-10-04T04:01:51.847Z,478.00
2022-10-04T04:02:51.724Z,477.00
2022-10-04T04:03:51.779Z,476.00
2022-10-04T04:04:51.664Z,475.00
2022-10-04T04:05:51.755Z,477.00
2022-10-04T04:06:51.633Z,477.00
2022-10-04T04:07:51.794Z,472.00
2022-10-04T04:08:51.616Z,473.00
2022-10-04T04:09:53.824Z,470.00
2022-10-04T04:10:51.586Z,470.00
2022-10-04T04:11:51.665Z,469.00
2022-10-04T04:12:51.564Z,471.00
2022-10-04T04:13:51.695Z,470.00
2022-10-04T04:14:51.536Z,471.00
2022-10-04T04:15:51.760Z,470.00
2022-10-04T04:16:51.502Z,469.00
2022-10-04T04:17:52.698Z,472.00
2022-10-04T04:18:51.475Z,473.00
2022-10-04T04:19:51.505Z,474.00
2022-10-04T04:20:51.454Z,473.00
2022-10-04T04:21:51.584Z,469.00
2022-10-04T04:22:51.415Z,474.00
2022-10-04T04:23:52.494Z,472.00
2022-10-04T04:24:51.395Z,471.00
2022-10-04T04:25:51.513Z,474.00
2022-10-04T04:26:51.374Z,476.00
2022-10-04T04:27:51.553Z,477.00
2022-10-04T04:28:51.344Z,478.00
2022-10-04T04:29:51.377Z,477.00
2022-10-04T04:30:51.314Z,482.00
2022-10-04T04:31:51.469Z,480.00
2022-10-04T04:32:51.297Z,477.00
2022-10-04T04:33:51.406Z,479.00
2022-10-04T04:34:51.260Z,482.00
2022-10-04T04:35:51.392Z,479.00
2022-10-04T04:36:51.235Z,479.00
2022-10-04T04:37:51.323Z,479.00
2022-10-04T04:38:51.211Z,479.00
2022-10-04T04:39:52.333Z,478.00
2022-10-04T04:40:51.397Z,479.00
2022-10-04T04:41:51.513Z,484.00
2022-10-04T04:42:51.157Z,482.00
2022-10-04T04:43:51.326Z,482.00
2022-10-04T04:44:51.125Z,480.00
2022-10-04T04:46:03.192Z,481.00
2022-10-04T04:46:53.315Z,482.00
2022-10-04T04:47:51.086Z,483.00
2022-10-04T04:48:51.275Z,482.00
2022-10-04T04:49:51.064Z,482.00
2022-10-04T04:50:51.207Z,482.00
2022-10-04T04:51:51.055Z,481.00
2022-10-04T04:52:53.127Z,487.00
2022-10-04T04:53:51.013Z,487.00
2022-10-04T04:54:51.074Z,488.00
2022-10-04T04:56:03.244Z,489.00
2022-10-04T04:56:52.006Z,489.00
2022-10-04T04:57:51.079Z,487.00
2022-10-04T04:58:50.946Z,486.00
2022-10-04T04:59:51.009Z,489.00
2022-10-04T05:00:50.973Z,490.00
2022-10-04T05:01:51.096Z,487.00
2022-10-04T05:02:53.791Z,487.00
2022-10-04T05:03:51.875Z,487.00
2022-10-04T05:04:50.954Z,488.00
2022-10-04T05:05:50.846Z,496.00
2022-10-04T05:06:50.987Z,493.00
2022-10-04T05:07:50.823Z,490.00
2022-10-04T05:08:50.979Z,492.00
2022-10-04T05:09:50.798Z,494.00
2022-10-04T05:10:50.858Z,495.00
2022-10-04T05:11:50.768Z,493.00
2022-10-04T05:12:50.895Z,492.00
2022-10-04T05:13:50.747Z,492.00
2022-10-04T05:14:54.076Z,491.00
2022-10-04T05:15:50.716Z,491.00
2022-10-04T05:16:50.909Z,490.00
2022-10-04T05:17:50.708Z,489.00
2022-10-04T05:18:50.836Z,489.00
2022-10-04T05:19:50.669Z,489.00
2022-10-04T05:20:52.836Z,490.00
2022-10-04T05:21:50.639Z,493.00
2022-10-04T05:22:50.767Z,495.00
2022-10-04T05:23:50.604Z,493.00
2022-10-04T05:24:52.806Z,495.00
2022-10-04T05:25:50.588Z,495.00
2022-10-04T05:26:50.797Z,497.00
2022-10-04T05:27:50.585Z,494.00
2022-10-04T05:28:50.671Z,495.00
2022-10-04T05:29:50.537Z,492.00
2022-10-04T05:30:50.607Z,490.00
2022-10-04T05:31:50.551Z,495.00
2022-10-04T05:32:53.875Z,492.00
2022-10-04T05:33:50.478Z,493.00
2022-10-04T05:34:50.627Z,492.00
2022-10-04T05:35:50.468Z,493.00
2022-10-04T05:36:50.508Z,494.00
2022-10-04T05:37:50.425Z,499.00
2022-10-04T05:38:50.496Z,493.00
2022-10-04T05:39:50.396Z,494.00
2022-10-04T05:40:51.548Z,499.00
2022-10-04T05:41:50.376Z,498.00
2022-10-04T05:42:50.519Z,496.00
2022-10-04T05:43:50.399Z,494.00
2022-10-04T05:44:51.536Z,496.00
2022-10-04T05:45:50.347Z,490.00
2022-10-04T05:46:50.388Z,496.00
2022-10-04T05:47:50.288Z,492.00
2022-10-04T05:48:50.426Z,491.00
2022-10-04T05:49:50.279Z,491.00
2022-10-04T05:50:50.422Z,494.00
2022-10-04T05:51:50.244Z,492.00
2022-10-04T05:52:50.397Z,495.00
2022-10-04T05:53:50.208Z,495.00
2022-10-04T05:54:50.334Z,494.00
2022-10-04T05:55:50.187Z,494.00
2022-10-04T05:56:51.236Z,494.00
2022-10-04T05:57:50.265Z,493.00
2022-10-04T05:58:50.296Z,491.00
2022-10-04T05:59:50.197Z,491.00
2022-10-04T06:00:50.333Z,490.00
2022-10-04T06:01:50.162Z,493.00
2022-10-04T06:02:50.398Z,494.00
2022-10-04T06:03:50.075Z,495.00
2022-10-04T06:04:50.105Z,495.00
2022-10-04T06:05:50.058Z,496.00
2022-10-04T06:06:50.139Z,492.00
2022-10-04T06:07:50.027Z,493.00
2022-10-04T06:08:50.117Z,490.00
2022-10-04T06:09:50.026Z,492.00
2022-10-04T06:10:50.107Z,493.00
2022-10-04T06:11:49.965Z,491.00
2022-10-04T06:12:50.147Z,494.00
2022-10-04T06:13:49.967Z,495.00
2022-10-04T06:14:50.036Z,497.00
2022-10-04T06:15:49.928Z,496.00
2022-10-04T06:16:50.083Z,496.00
2022-10-04T06:17:49.898Z,498.00
2022-10-04T06:18:52.051Z,497.00
2022-10-04T06:19:49.870Z,499.00
2022-10-04T06:20:50.036Z,499.00
2022-10-04T06:21:49.837Z,500.00
2022-10-04T06:22:50.019Z,499.00
2022-10-04T06:23:49.809Z,497.00
2022-10-04T06:24:50.878Z,491.00
2022-10-04T06:25:49.786Z,491.00
2022-10-04T06:26:49.940Z,493.00
2022-10-04T06:27:49.757Z,490.00
2022-10-04T06:28:49.827Z,489.00
2022-10-04T06:29:49.735Z,489.00
2022-10-04T06:30:49.937Z,490.00
2022-10-04T06:31:49.710Z,491.00
2022-10-04T06:32:49.758Z,492.00
2022-10-04T06:33:49.693Z,479.00
2022-10-04T06:34:49.746Z,484.00
2022-10-04T06:35:49.666Z,486.00
2022-10-04T06:36:49.777Z,485.00
2022-10-04T06:37:49.618Z,487.00
2022-10-04T06:38:49.757Z,486.00
2022-10-04T06:39:49.598Z,486.00
2022-10-04T06:40:49.743Z,483.00
2022-10-04T06:41:49.579Z,482.00
2022-10-04T06:42:49.678Z,481.00
2022-10-04T06:43:49.540Z,483.00
2022-10-04T06:44:49.660Z,485.00
2022-10-04T06:45:50.441Z,486.00
2022-10-04T06:46:50.088Z,484.00
2022-10-04T06:47:50.317Z,488.00
2022-10-04T06:48:49.988Z,491.00
2022-10-04T06:49:49.836Z,488.00
2022-10-04T06:50:49.670Z,489.00
2022-10-04T06:51:49.438Z,489.00
2022-10-04T06:52:49.563Z,489.00
2022-10-04T06:53:49.409Z,489.00
2022-10-04T06:54:49.447Z,486.00
2022-10-04T06:55:49.391Z,487.00
2022-10-04T06:56:49.580Z,487.00
2022-10-04T06:57:49.370Z,488.00
2022-10-04T06:58:49.461Z,491.00
2022-10-04T06:59:49.347Z,492.00
2022-10-04T07:00:49.579Z,492.00
2022-10-04T07:01:49.355Z,494.00
2022-10-04T07:02:49.441Z,494.00
2022-10-04T07:03:51.580Z,497.00
2022-10-04T07:05:07.515Z,493.00
2022-10-04T07:05:50.360Z,494.00
2022-10-04T07:06:49.262Z,490.00
2022-10-04T07:07:52.182Z,489.00
2022-10-04T07:08:49.250Z,490.00
2022-10-04T07:09:49.319Z,487.00
2022-10-04T07:10:49.190Z,489.00
2022-10-04T07:11:49.352Z,490.00
2022-10-04T07:12:49.160Z,488.00
2022-10-04T07:13:49.179Z,488.00
2022-10-04T07:14:49.149Z,487.00
2022-10-04T07:15:49.481Z,484.00
2022-10-04T07:16:49.109Z,485.00
2022-10-04T07:17:49.359Z,484.00
2022-10-04T07:18:49.081Z,485.00
2022-10-04T07:19:50.312Z,486.00
2022-10-04T07:20:49.328Z,481.00
2022-10-04T07:21:49.719Z,480.00
2022-10-04T07:22:49.030Z,480.00
2022-10-04T07:23:49.060Z,483.00
2022-10-04T07:24:49.005Z,484.00
2022-10-04T07:25:49.106Z,485.00
2022-10-04T07:26:49.009Z,485.00
2022-10-04T07:27:49.138Z,483.00
2022-10-04T07:28:48.951Z,483.00
2022-10-04T07:29:49.071Z,483.00
2022-10-04T07:30:49.004Z,481.00
2022-10-04T07:31:49.012Z,482.00
2022-10-04T07:32:48.930Z,484.00
2022-10-04T07:33:49.058Z,483.00
2022-10-04T07:34:48.859Z,484.00
2022-10-04T07:35:50.010Z,482.00
2022-10-04T07:36:48.852Z,484.00
2022-10-04T07:37:49.015Z,484.00
2022-10-04T07:38:48.922Z,486.00
2022-10-04T07:39:48.950Z,483.00
2022-10-04T07:40:48.801Z,483.00
2022-10-04T07:41:50.895Z,486.00
2022-10-04T07:42:48.770Z,488.00
2022-10-04T07:43:48.821Z,483.00
2022-10-04T07:44:48.750Z,483.00
2022-10-04T07:45:48.878Z,484.00
2022-10-04T07:46:48.712Z,485.00
2022-10-04T07:47:48.910Z,484.00
2022-10-04T07:48:48.681Z,485.00
2022-10-04T07:49:48.719Z,482.00
2022-10-04T07:50:48.692Z,483.00
2022-10-04T07:51:48.727Z,481.00
2022-10-04T07:52:48.641Z,478.00
2022-10-04T07:53:48.693Z,482.00
2022-10-04T07:54:48.972Z,487.00
2022-10-04T07:55:48.730Z,488.00
2022-10-04T07:56:48.601Z,486.00
2022-10-04T07:57:48.771Z,488.00
2022-10-04T07:58:48.551Z,489.00
2022-10-04T07:59:48.601Z,489.00
2022-10-04T08:00:48.520Z,492.00
2022-10-04T08:01:48.674Z,488.00
2022-10-04T08:02:48.687Z,490.00
2022-10-04T08:03:48.574Z,487.00
2022-10-04T08:04:48.471Z,482.00
2022-10-04T08:05:49.731Z,487.00
2022-10-04T08:06:48.442Z,483.00
2022-10-04T08:07:48.542Z,487.00
2022-10-04T08:08:48.440Z,489.00
2022-10-04T08:09:48.592Z,488.00
2022-10-04T08:10:48.382Z,480.00
2022-10-04T08:11:49.541Z,474.00
2022-10-04T08:12:48.366Z,479.00
2022-10-04T08:13:48.457Z,483.00
2022-10-04T08:14:48.363Z,486.00
2022-10-04T08:15:48.575Z,487.00
2022-10-04T08:16:48.315Z,484.00
2022-10-04T08:17:50.421Z,488.00
2022-10-04T08:18:48.273Z,480.00
2022-10-04T08:19:48.353Z,482.00
2022-10-04T08:20:48.282Z,482.00
2022-10-04T08:21:48.393Z,482.00
2022-10-04T08:22:48.443Z,483.00
2022-10-04T08:24:10.263Z,482.00
2022-10-04T08:24:53.224Z,486.00
2022-10-04T08:25:49.203Z,487.00
2022-10-04T08:26:48.331Z,491.00
2022-10-04T08:27:48.672Z,485.00
2022-10-04T08:28:48.191Z,493.00
2022-10-04T08:29:48.142Z,492.00
2022-10-04T08:30:48.282Z,485.00
2022-10-04T08:31:48.133Z,486.00
2022-10-04T08:32:48.203Z,488.00
2022-10-04T08:33:48.128Z,482.00
2022-10-04T08:34:48.125Z,484.00
2022-10-04T08:35:48.065Z,482.00
2022-10-04T08:36:49.242Z,481.00
2022-10-04T08:37:48.065Z,480.00
2022-10-04T08:38:48.150Z,477.00
2022-10-04T08:39:47.994Z,478.00
2022-10-04T08:40:48.163Z,484.00
2022-10-04T08:41:47.997Z,483.00
2022-10-04T08:42:48.137Z,483.00
2022-10-04T08:43:47.977Z,481.00
2022-10-04T08:44:48.004Z,483.00
2022-10-04T08:45:47.924Z,483.00
2022-10-04T08:46:48.360Z,483.00
2022-10-04T08:47:47.904Z,482.00
2022-10-04T08:48:48.043Z,480.00
2022-10-04T08:49:47.910Z,478.00
2022-10-04T08:50:48.994Z,478.00
2022-10-04T08:51:47.855Z,478.00
2022-10-04T08:52:48.003Z,477.00
2022-10-04T08:53:47.844Z,477.00
2022-10-04T08:54:47.872Z,478.00
2022-10-04T08:55:47.874Z,477.00
2022-10-04T08:56:47.940Z,475.00
2022-10-04T08:57:47.783Z,474.00
2022-10-04T08:58:47.794Z,476.00
2022-10-04T08:59:47.744Z,477.00
2022-10-04T09:01:27.025Z,477.00
2022-10-04T09:01:47.770Z,468.00
2022-10-04T09:02:47.715Z,474.00
2022-10-04T09:03:47.754Z,476.00
2022-10-04T09:04:47.682Z,476.00
2022-10-04T09:05:47.786Z,474.00
2022-10-04T09:06:47.676Z,475.00
2022-10-04T09:07:47.814Z,472.00
2022-10-04T09:08:47.625Z,476.00
2022-10-04T09:09:47.756Z,478.00
2022-10-04T09:10:47.595Z,472.00
2022-10-04T09:11:47.983Z,470.00
2022-10-04T09:12:47.587Z,484.00
2022-10-04T09:13:47.627Z,480.00
2022-10-04T09:14:47.544Z,467.00
2022-10-04T09:15:48.753Z,472.00
2022-10-04T09:16:47.524Z,468.00
2022-10-04T09:17:47.623Z,469.00
2022-10-04T09:18:47.515Z,476.00
2022-10-04T09:19:47.628Z,480.00
2022-10-04T09:20:47.465Z,472.00
2022-10-04T09:21:47.567Z,473.00
2022-10-04T09:22:47.435Z,475.00
2022-10-04T09:23:47.504Z,476.00
2022-10-04T09:24:47.707Z,480.00
2022-10-04T09:25:48.352Z,477.00
2022-10-04T09:26:48.469Z,476.00
2022-10-04T09:27:54.890Z,468.00
2022-10-04T09:28:48.736Z,474.00
2022-10-04T09:29:47.486Z,479.00
2022-10-04T09:30:48.010Z,472.00
2022-10-04T09:31:48.032Z,470.00
2022-10-04T09:32:48.619Z,469.00
2022-10-04T09:33:51.777Z,467.00
2022-10-04T09:34:47.684Z,466.00
2022-10-04T09:35:48.884Z,465.00
2022-10-04T09:36:47.940Z,470.00
2022-10-04T09:37:50.304Z,468.00
2022-10-04T09:38:57.787Z,471.00
2022-10-04T09:39:49.396Z,479.00
2022-10-04T09:40:49.966Z,473.00
2022-10-04T09:42:09.130Z,478.00
2022-10-04T09:42:48.084Z,472.00
2022-10-04T09:43:49.633Z,467.00
2022-10-04T09:44:47.292Z,471.00
2022-10-04T09:46:56.953Z,523.00
2022-10-04T09:47:56.796Z,483.00
2022-10-04T09:48:56.670Z,476.00
2022-10-04T09:49:56.459Z,475.00
2022-10-04T09:50:57.933Z,483.00
2022-10-04T09:51:56.569Z,478.00
2022-10-04T09:52:57.357Z,462.00
2022-10-04T09:53:56.413Z,471.00
2022-10-04T09:54:56.514Z,471.00
2022-10-04T09:55:56.365Z,478.00
2022-10-04T09:56:57.473Z,476.00
2022-10-04T09:57:56.334Z,478.00
2022-10-04T09:58:56.534Z,476.00
2022-10-04T09:59:56.323Z,484.00
2022-10-04T10:00:56.492Z,489.00
2022-10-04T10:01:56.293Z,478.00
2022-10-04T10:02:56.650Z,481.00
2022-10-04T10:03:56.425Z,472.00
2022-10-04T10:04:56.518Z,471.00
2022-10-04T10:05:56.253Z,477.00
2022-10-04T10:06:57.356Z,471.00
2022-10-04T10:07:56.203Z,473.00
2022-10-04T10:08:57.436Z,476.00
2022-10-04T10:09:56.195Z,474.00
2022-10-04T10:10:56.206Z,478.00
2022-10-04T10:11:56.187Z,473.00
2022-10-04T10:12:56.244Z,479.00
2022-10-04T10:13:56.292Z,474.00
2022-10-04T10:14:56.267Z,471.00
2022-10-04T10:15:56.116Z,474.00
2022-10-04T10:16:56.355Z,476.00
2022-10-04T10:17:56.086Z,475.00
2022-10-04T10:18:56.255Z,476.00
2022-10-04T10:19:56.042Z,476.00
2022-10-04T10:20:56.086Z,479.00
2022-10-04T10:21:56.015Z,476.00
2022-10-04T10:22:56.118Z,474.00
2022-10-04T10:23:56.027Z,476.00
2022-10-04T10:24:58.626Z,476.00
2022-10-04T10:25:55.966Z,476.00
2022-10-04T10:26:56.094Z,472.00
2022-10-04T10:27:55.990Z,471.00
2022-10-04T10:28:56.026Z,478.00
2022-10-04T10:29:55.938Z,475.00
2022-10-04T10:30:58.084Z,477.00
2022-10-04T10:31:55.876Z,478.00
2022-10-04T10:32:55.995Z,481.00
2022-10-04T10:33:55.857Z,478.00
2022-10-04T10:34:55.937Z,478.00
2022-10-04T10:35:55.847Z,476.00
2022-10-04T10:36:55.868Z,472.00
2022-10-04T10:37:55.806Z,474.00
2022-10-04T10:38:55.898Z,472.00
2022-10-04T10:39:55.767Z,468.00
2022-10-04T10:40:55.847Z,471.00
2022-10-04T10:41:55.765Z,463.00
2022-10-04T10:44:05.033Z,538.00
2022-10-04T10:45:04.942Z,480.00
2022-10-04T10:46:06.056Z,481.00
2022-10-04T10:47:04.950Z,477.00
2022-10-04T10:48:05.019Z,476.00
2022-10-04T10:49:04.895Z,473.00
2022-10-04T10:50:05.055Z,474.00
2022-10-04T10:51:04.866Z,473.00
2022-10-04T10:52:04.883Z,474.00
2022-10-04T10:53:04.887Z,473.00
2022-10-04T10:54:04.936Z,467.00
2022-10-04T10:55:04.835Z,463.00
2022-10-04T10:56:04.853Z,466.00
2022-10-04T10:57:04.785Z,464.00
2022-10-04T10:58:04.914Z,463.00
2022-10-04T10:59:04.794Z,462.00
2022-10-04T11:01:14.258Z,528.00
2022-10-04T11:02:14.346Z,479.00
2022-10-04T11:03:16.427Z,470.00
2022-10-04T11:04:14.017Z,471.00
2022-10-04T11:05:35.084Z,470.00
2022-10-04T11:06:13.947Z,471.00
2022-10-04T11:07:13.938Z,472.00
2022-10-04T11:08:14.086Z,474.00
2022-10-04T11:09:14.047Z,472.00
2022-10-04T11:10:13.985Z,473.00
2022-10-04T11:11:14.157Z,462.00
2022-10-04T11:12:13.958Z,485.00
2022-10-04T11:13:13.858Z,482.00
2022-10-04T11:14:13.945Z,483.00
2022-10-04T11:15:13.825Z,479.00
2022-10-04T11:16:15.110Z,479.00
2022-10-04T11:17:13.796Z,479.00
2022-10-04T11:18:14.066Z,484.00
2022-10-04T11:19:13.806Z,482.00
2022-10-04T11:20:14.478Z,479.00
2022-10-04T11:21:13.738Z,479.00
2022-10-04T11:22:14.828Z,479.00
2022-10-04T11:23:13.717Z,483.00
2022-10-04T11:24:13.869Z,477.00
2022-10-04T11:25:13.688Z,478.00
2022-10-04T11:26:13.807Z,477.00
2022-10-04T11:27:13.677Z,471.00
2022-10-04T11:28:13.849Z,473.00
2022-10-04T11:29:13.639Z,471.00
2022-10-04T11:30:14.696Z,476.00
2022-10-04T11:31:13.657Z,480.00
2022-10-04T11:32:13.720Z,481.00
2022-10-04T11:33:13.588Z,482.00
2022-10-04T11:34:17.060Z,479.00
2022-10-04T11:35:13.567Z,477.00
2022-10-04T11:36:13.680Z,478.00
2022-10-04T11:37:13.539Z,479.00
2022-10-04T11:38:13.719Z,479.00
2022-10-04T11:39:13.508Z,480.00
2022-10-04T11:40:13.628Z,470.00
2022-10-04T11:41:13.487Z,475.00
2022-10-04T11:42:13.606Z,477.00
2022-10-04T11:43:13.468Z,479.00
2022-10-04T11:44:13.676Z,480.00
2022-10-04T11:45:13.499Z,470.00
2022-10-04T11:46:13.605Z,474.00
2022-10-04T11:47:13.458Z,474.00
2022-10-04T11:48:13.500Z,475.00
2022-10-04T11:49:13.377Z,472.00
2022-10-04T11:50:13.449Z,467.00
2022-10-04T11:51:13.350Z,468.00
2022-10-04T11:52:13.521Z,473.00
2022-10-04T11:53:13.329Z,470.00
2022-10-04T11:54:13.506Z,473.00
2022-10-04T11:55:13.308Z,465.00
2022-10-04T11:56:13.441Z,470.00
2022-10-04T11:57:13.300Z,467.00
2022-10-04T11:58:13.447Z,469.00
2022-10-04T11:59:13.367Z,471.00
2022-10-04T12:00:13.270Z,478.00
2022-10-04T12:01:13.240Z,468.00
2022-10-04T12:02:13.283Z,471.00
2022-10-04T12:03:13.249Z,469.00
2022-10-04T12:04:15.473Z,469.00
2022-10-04T12:05:13.161Z,469.00
2022-10-04T12:06:13.412Z,473.00
2022-10-04T12:07:13.180Z,476.00
2022-10-04T12:08:13.256Z,476.00
2022-10-04T12:09:13.122Z,480.00
2022-10-04T12:10:13.249Z,478.00
2022-10-04T12:11:13.092Z,466.00
2022-10-04T12:12:13.243Z,470.00
2022-10-04T12:13:13.062Z,468.00
2022-10-04T12:14:13.261Z,467.00
2022-10-04T12:15:13.051Z,468.00
2022-10-04T12:16:14.260Z,465.00
2022-10-04T12:17:13.012Z,468.00
2022-10-04T12:18:13.131Z,470.00
2022-10-04T12:19:12.991Z,470.00
2022-10-04T12:20:13.124Z,468.00
2022-10-04T12:21:13.104Z,468.00
2022-10-04T12:22:15.001Z,475.00
2022-10-04T12:23:12.941Z,473.00
2022-10-04T12:24:13.132Z,470.00
2022-10-04T12:25:12.902Z,468.00
2022-10-04T12:26:17.088Z,468.00
2022-10-04T12:27:13.879Z,465.00
2022-10-04T12:28:13.054Z,457.00
2022-10-04T12:29:12.864Z,471.00
2022-10-04T12:30:13.961Z,465.00
2022-10-04T12:31:12.877Z,469.00
2022-10-04T12:32:13.054Z,473.00
2022-10-04T12:33:12.983Z,472.00